Decoded Metar for KVTI (VINTON in IA, USA) (IATA:VTI) | Meteo·Mobile Aviation Weather
aviador You're here:

KVTI Decoded Metar

VINTON in IA, USA
Report Time2019-06-17 04:35:00
UTC Time2019-06-17 04:54:22
Flight Rules mvfr MVFR
WindCalm
Visibility9999 m
Phenomena:N/A
Clouds:Overcast 017 Hf
Expected CloudBase > 400 ft AGL from Temp-Dew spread
Ceiling1,700 ft
Temp17°C (ISA +4)
Dew Point16°C (94% RH)
QNH1015 hPa
Density Alt1,447 ft
Elevation837 ft
Report Wrong Elevation
Raw Report
KVTI 170435Z AUTO 00000KT 10SM OVC017 17/16 A2996 RMK AO2
T01680162=

Extra information for KVTI:More info

Metar Taf Metar & Taf Last 4 Metars F.Rules Stats Wind Profile Meteogram Temp Stats Airport Information Weather charts Add Link Nearby VenuesMetar ALERT Operation Metar Decoded Social comments

AIRNAV info for KVTI